Time;durP1;ratioP1;P1;durP2;ratioP2;P2;SDS_P1;SDS_P2;PMS_P1;PMS_P2;Temp;Humidity;BMP_temperature;BMP_pressure;BME280_temperature;BME280_humidity;BME280_pressure;Samples;Min_cycle;Max_cycle;Signal;HPM_P1;HPM_P2
2024/01/07 00:02:26;;;;;;;5.47;3.17;;;6.20;99.90;;;;;;6058936;23;20055;-82
2024/01/07 00:19:07;;;;;;;3.85;2.30;;;6.00;99.90;;;;;;5953429;24;20044;-82
2024/01/07 00:33:13;;;;;;;5.25;2.88;;;6.00;99.90;;;;;;6154011;23;20026;-82
2024/01/07 00:35:52;;;;;;;4.43;2.72;;;6.00;99.90;;;;;;6153827;23;19986;-83
2024/01/07 00:38:36;;;;;;;5.40;2.72;;;6.00;99.90;;;;;;6157782;23;19994;-83
2024/01/07 00:42:11;;;;;;;3.75;2.40;;;4.50;99.90;;;;;;6131850;23;20008;-81
2024/01/07 01:16:09;;;;;;;3.42;2.33;;;5.80;99.90;;;;;;6156046;23;20021;-83
2024/01/07 01:22:27;;;;;;;5.35;2.53;;;5.70;99.90;;;;;;6183075;23;20081;-82
2024/01/07 01:36:55;;;;;;;4.32;2.35;;;5.60;99.90;;;;;;6180409;23;20067;-84
2024/01/07 01:39:55;;;;;;;3.65;2.38;;;5.50;99.90;;;;;;6180515;23;20065;-82
2024/01/07 01:46:20;;;;;;;3.35;2.10;;;5.60;99.90;;;;;;6176882;23;20040;-86
2024/01/07 03:30:27;;;;;;;5.05;3.40;;;5.40;99.90;;;;;;6172924;23;20122;-81
2024/01/07 03:33:00;;;;;;;5.30;3.25;;;5.40;99.90;;;;;;6165405;23;20017;-82
2024/01/07 03:35:32;;;;;;;5.68;3.42;;;5.30;99.90;;;;;;6176738;23;20005;-81
2024/01/07 03:38:05;;;;;;;5.88;3.45;;;5.30;99.90;;;;;;6127323;23;20079;-81
2024/01/07 03:44:10;;;;;;;6.07;3.58;;;5.30;99.90;;;;;;6056239;23;20074;-82
2024/01/07 03:49:40;;;;;;;5.88;3.60;;;5.30;99.90;;;;;;6157898;23;20040;-81
2024/01/07 03:52:51;;;;;;;5.97;3.63;;;4.40;99.90;;;;;;6151467;23;20014;-81
2024/01/07 04:29:27;;;;;;;7.45;4.57;;;;;;;;;;6161486;23;20023;-82
2024/01/07 04:35:34;;;;;;;;;;;3.30;99.90;;;;;;6123229;23;20034;-81
2024/01/07 05:29:59;;;;;;;7.10;3.88;;;4.90;99.90;;;;;;6161179;23;20026;-82
2024/01/07 05:33:15;;;;;;;8.23;4.53;;;5.00;99.90;;;;;;6182716;23;20018;-82
2024/01/07 08:27:29;;;;;;;6.45;3.47;;;5.00;99.90;;;;;;6142998;23;20021;-81
2024/01/07 08:29:56;;;;;;;6.43;3.70;;;;;;;;;;6162906;23;20006;-81
2024/01/07 08:32:28;;;;;;;7.90;4.72;;;5.00;99.90;;;;;;6165010;23;20079;-81
2024/01/07 08:35:01;;;;;;;6.95;3.97;;;5.10;99.90;;;;;;6159231;23;20064;-82
2024/01/07 08:37:38;;;;;;;7.18;4.10;;;5.00;99.90;;;;;;6170352;23;20017;-82
2024/01/07 08:40:06;;;;;;;6.00;3.70;;;;;;;;;;6181364;23;20017;-81
2024/01/07 08:42:33;;;;;;;9.88;4.70;;;;;;;;;;6172228;23;20021;-80
2024/01/07 08:45:00;;;;;;;7.53;4.47;;;5.00;99.90;;;;;;6131678;23;20452;-80
2024/01/07 08:52:39;;;;;;;7.70;4.35;;;7.10;99.90;;;;;;6153641;23;20242;-80
2024/01/07 08:55:10;;;;;;;7.72;4.32;;;;;;;;;;6137965;23;20088;-80
2024/01/07 08:57:41;;;;;;;9.20;5.35;;;5.10;99.90;;;;;;6155497;23;20001;-79
2024/01/07 09:00:13;;;;;;;9.00;4.60;;;8.00;99.90;;;;;;6156908;23;20077;-79
2024/01/07 09:02:41;;;;;;;8.57;4.30;;;5.10;99.90;;;;;;6130520;23;20016;-79
2024/01/07 09:05:10;;;;;;;6.68;4.07;;;5.10;99.90;;;;;;6157166;23;20006;-80
2024/01/07 09:07:37;;;;;;;6.95;4.00;;;;;;;;;;6156720;23;20009;-80
2024/01/07 09:10:10;;;;;;;8.63;4.68;;;5.10;99.90;;;;;;6131406;23;20002;-79
2024/01/07 09:12:36;;;;;;;8.23;4.47;;;;;;;;;;6157927;23;20001;-79
2024/01/07 09:15:03;;;;;;;7.78;4.20;;;;;;;;;;6157659;23;20009;-81
2024/01/07 09:22:41;;;;;;;7.97;4.40;;;4.50;99.90;;;;;;6146794;23;20025;-79
2024/01/07 09:25:08;;;;;;;7.05;4.10;;;;;;;;;;6157213;23;20009;-79
2024/01/07 09:27:36;;;;;;;8.10;4.50;;;;;;;;;;6158290;23;20029;-80
2024/01/07 09:30:10;;;;;;;8.20;4.35;;;5.30;99.90;;;;;;6131070;23;20009;-80
2024/01/07 09:32:37;;;;;;;7.45;3.90;;;;;;;;;;6159222;23;20010;-80
2024/01/07 09:35:05;;;;;;;7.95;4.85;;;;;;;;;;6133393;23;20066;-79
2024/01/07 09:37:32;;;;;;;7.95;4.50;;;5.20;99.90;;;;;;6156872;23;20077;-79
2024/01/07 09:39:58;;;;;;;8.27;4.25;;;;;;;;;;6157547;23;20064;-80
2024/01/07 09:42:25;;;;;;;7.07;4.28;;;5.20;99.90;;;;;;6137170;23;20012;-81
2024/01/07 09:44:52;;;;;;;8.05;4.18;;;;;;;;;;6152719;23;20002;-81
2024/01/07 09:52:29;;;;;;;8.00;4.47;;;4.80;99.90;;;;;;6127113;23;19923;-80
2024/01/07 09:55:02;;;;;;;8.57;4.50;;;5.20;99.90;;;;;;6164334;23;20006;-82
2024/01/07 09:57:33;;;;;;;5.85;3.80;;;5.20;99.90;;;;;;6157654;23;20005;-82
2024/01/07 10:00:01;;;;;;;;;;;5.20;99.90;;;;;;6132644;23;20010;-82
2024/01/07 10:02:29;;;;;;;12.73;4.55;;;5.20;99.90;;;;;;6131973;23;19930;-81
2024/01/07 10:04:57;;;;;;;5.95;3.65;;;5.30;99.90;;;;;;6155754;23;20433;-81
2024/01/07 10:07:29;;;;;;;6.47;3.72;;;5.20;99.90;;;;;;6156329;23;20098;-81
2024/01/07 10:10:18;;;;;;;7.47;3.90;;;5.40;99.90;;;;;;6134004;23;20017;-81
2024/01/07 10:12:56;;;;;;;6.32;3.85;;;5.20;99.90;;;;;;6131424;23;20028;-81
2024/01/07 10:15:24;;;;;;;7.18;4.10;;;5.40;99.90;;;;;;6132273;23;20006;-82
2024/01/07 10:20:27;;;;;;;6.90;3.97;;;5.40;99.90;;;;;;6130985;23;20117;-79
2024/01/07 10:22:53;;;;;;;6.20;3.65;;;;;;;;;;6111076;23;20014;-81
2024/01/07 10:25:27;;;;;;;6.93;3.88;;;5.50;99.90;;;;;;6163370;23;20005;-81
2024/01/07 10:27:54;;;;;;;6.85;3.90;;;;;;;;;;6130180;23;20013;-79
2024/01/07 10:30:21;;;;;;;6.93;3.90;;;;;;;;;;6104811;23;20034;-80
2024/01/07 10:32:48;;;;;;;5.25;3.20;;;;;;;;;;6143665;23;20006;-80
2024/01/07 10:35:14;;;;;;;6.32;3.88;;;;;;;;;;6121632;23;20002;-80
2024/01/07 10:59:08;;;;;;;4.68;2.88;;;5.60;99.90;;;;;;6123007;23;20021;-81
2024/01/07 11:01:37;;;;;;;8.88;3.60;;;5.60;99.90;;;;;;6134996;23;20013;-81
2024/01/07 11:04:38;;;;;;;6.22;3.70;;;5.60;99.90;;;;;;6110028;23;20006;-81
2024/01/07 11:07:38;;;;;;;6.43;3.72;;;5.60;99.90;;;;;;6159718;23;20005;-80
2024/01/07 11:10:27;;;;;;;6.18;3.65;;;5.50;99.90;;;;;;6159250;23;20025;-80
2024/01/07 11:13:03;;;;;;;5.70;3.75;;;5.30;99.90;;;;;;6160853;23;20005;-81
2024/01/07 11:15:48;;;;;;;7.80;3.85;;;3.70;99.90;;;;;;6166431;23;20055;-80
2024/01/07 11:18:23;;;;;;;4.97;3.53;;;5.50;99.90;;;;;;6179737;23;20016;-82
2024/01/07 11:20:58;;;;;;;6.30;3.67;;;5.60;99.90;;;;;;6132071;23;20023;-79
2024/01/07 11:23:32;;;;;;;5.72;3.83;;;5.60;99.90;;;;;;6178244;23;20005;-81
2024/01/07 11:26:01;;;;;;;6.50;4.00;;;4.50;99.90;;;;;;6181138;23;20001;-80
2024/01/07 11:43:29;;;;;;;7.90;4.75;;;4.50;99.90;;;;;;6153450;23;20029;-81
2024/01/07 11:45:56;;;;;;;5.65;3.38;;;7.60;99.90;;;;;;6150307;23;20012;-79
2024/01/07 11:48:23;;;;;;;9.57;5.60;;;5.80;99.90;;;;;;6134776;23;20006;-80
2024/01/07 12:09:15;;;;;;;4.32;2.90;;;5.80;99.90;;;;;;6080691;23;20018;-80
2024/01/07 12:19:15;;;;;;;4.82;2.97;;;5.80;99.90;;;;;;5882252;24;20025;-81
2024/01/07 12:22:43;;;;;;;4.85;3.15;;;5.70;99.90;;;;;;5861760;24;20066;-80
2024/01/07 12:26:37;;;;;;;5.72;3.63;;;5.70;99.90;;;;;;5833190;24;20006;-79
2024/01/07 13:08:15;;;;;;;5.93;3.67;;;5.80;99.90;;;;;;6027141;22;7246889;-82
2024/01/07 13:10:45;;;;;;;6.57;3.92;;;5.60;99.90;;;;;;6287037;22;20246;-81
2024/01/07 13:13:15;;;;;;;6.25;4.13;;;9.20;99.90;;;;;;6291417;22;20010;-82
2024/01/07 13:16:07;;;;;;;7.80;4.40;;;6.70;99.90;;;;;;6290183;22;20018;-80
2024/01/07 13:18:53;;;;;;;7.25;4.68;;;;;;;;;;6280780;22;20008;-80
2024/01/07 13:21:21;;;;;;;9.43;4.90;;;5.40;99.90;;;;;;6284679;22;20014;-79
2024/01/07 13:23:48;;;;;;;8.43;4.95;;;4.80;99.90;;;;;;6285615;22;20000;-81
2024/01/07 13:26:16;;;;;;;7.13;4.72;;;5.50;99.90;;;;;;6285037;22;20063;-80
2024/01/07 13:28:43;;;;;;;7.32;4.43;;;5.70;99.90;;;;;;6289030;22;20325;-80
2024/01/07 13:31:13;;;;;;;8.05;4.13;;;5.70;99.90;;;;;;6286101;22;20010;-80
2024/01/07 13:33:43;;;;;;;7.47;4.55;;;5.70;99.90;;;;;;6285662;22;20007;-80
2024/01/07 13:36:13;;;;;;;7.55;4.47;;;;;;;;;;6286171;22;20003;-81
2024/01/07 13:38:41;;;;;;;8.18;4.90;;;5.70;99.90;;;;;;6285204;22;20031;-80
2024/01/07 13:41:11;;;;;;;7.72;4.72;;;5.70;99.90;;;;;;6286381;22;20007;-81
2024/01/07 13:43:40;;;;;;;8.10;4.65;;;;;;;;;;6286168;22;20075;-81
2024/01/07 13:46:08;;;;;;;7.82;4.40;;;5.70;99.90;;;;;;6284957;22;20011;-80
2024/01/07 13:48:38;;;;;;;7.45;4.18;;;5.60;99.90;;;;;;6262613;22;20445;-81
2024/01/07 13:51:06;;;;;;;8.25;4.43;;;5.70;99.90;;;;;;6276308;22;19999;-81
2024/01/07 13:53:34;;;;;;;6.68;4.30;;;6.40;99.90;;;;;;6274639;22;20089;-81
2024/01/07 13:56:03;;;;;;;7.82;4.35;;;4.90;99.90;;;;;;6276575;22;20008;-81
2024/01/07 13:58:41;;;;;;;9.15;5.35;;;5.50;99.90;;;;;;6299389;22;20002;-81
2024/01/07 14:01:21;;;;;;;6.20;3.97;;;8.40;99.90;;;;;;6297250;22;20014;-81
2024/01/07 14:03:47;;;;;;;8.00;3.92;;;;;;;;;;6279934;22;19999;-81
2024/01/07 14:06:15;;;;;;;7.45;4.35;;;5.60;99.90;;;;;;6292288;22;20030;-82
2024/01/07 14:08:46;;;;;;;8.02;4.57;;;5.60;99.90;;;;;;6285993;22;20038;-82
2024/01/07 14:11:13;;;;;;;9.25;4.65;;;;;;;;;;6286830;22;20438;-82
2024/01/07 14:13:44;;;;;;;7.72;4.50;;;4.20;99.90;;;;;;6289230;22;20019;-83
2024/01/07 15:16:16;;;;;;;9.60;5.93;;;5.00;99.90;;;;;;6249000;22;20008;-85
2024/01/07 15:22:08;;;;;;;8.93;4.68;;;4.90;99.90;;;;;;6274668;22;19995;-80
2024/01/07 16:13:58;;;;;;;6.85;4.50;;;4.70;99.90;;;;;;6293020;22;20042;-81
2024/01/07 16:16:38;;;;;;;7.85;4.63;;;4.60;99.90;;;;;;6292170;22;20007;-80
2024/01/07 16:19:11;;;;;;;8.23;4.68;;;4.60;99.90;;;;;;6320740;22;20003;-81
2024/01/07 16:21:41;;;;;;;9.02;5.32;;;4.60;99.90;;;;;;6316937;22;20315;-81
2024/01/07 16:24:20;;;;;;;10.00;5.22;;;4.70;99.90;;;;;;6291403;22;20068;-80
2024/01/07 16:26:47;;;;;;;8.85;5.10;;;;;;;;;;6317111;22;20011;-80
2024/01/07 16:29:15;;;;;;;8.63;5.03;;;4.60;99.90;;;;;;6290963;22;20003;-80
2024/01/07 16:31:48;;;;;;;8.52;4.90;;;4.60;99.90;;;;;;6239259;22;20003;-82
2024/01/07 16:34:15;;;;;;;8.18;4.47;;;;;;;;;;6260799;22;20397;-81
2024/01/07 16:36:46;;;;;;;8.98;5.38;;;4.10;99.90;;;;;;6288018;22;20003;-82
2024/01/07 16:39:21;;;;;;;9.40;5.65;;;;;;;;;;6262654;22;20393;-82
2024/01/07 16:41:54;;;;;;;9.13;5.13;;;4.50;99.90;;;;;;6261106;22;20000;-81
2024/01/07 16:44:25;;;;;;;10.13;6.10;;;3.80;99.90;;;;;;6262226;22;20095;-81
2024/01/07 16:46:53;;;;;;;9.88;5.60;;;4.50;99.90;;;;;;6265629;22;19999;-82
2024/01/07 16:49:20;;;;;;;9.65;5.30;;;;;;;;;;6264049;22;20113;-79
2024/01/07 16:51:48;;;;;;;8.25;4.80;;;;;;;;;;6260214;22;20035;-80
2024/01/07 16:54:18;;;;;;;8.73;4.68;;;4.30;99.90;;;;;;6259603;22;20012;-79
2024/01/07 17:10:32;;;;;;;10.25;5.50;;;4.10;99.90;;;;;;6234577;22;20004;-82
2024/01/07 17:13:38;;;;;;;10.18;4.90;;;4.10;99.90;;;;;;6234899;22;20008;-80
2024/01/07 17:16:29;;;;;;;9.55;4.55;;;4.00;99.90;;;;;;6194973;23;20000;-82
2024/01/07 17:22:47;;;;;;;7.90;4.32;;;4.10;99.90;;;;;;6272463;22;20007;-81
2024/01/07 17:25:32;;;;;;;8.45;4.90;;;;;;;;;;6270392;22;20004;-81
2024/01/07 17:31:35;;;;;;;8.13;4.30;;;4.00;99.90;;;;;;6273888;23;20015;-80
2024/01/07 17:34:15;;;;;;;7.03;3.78;;;3.90;99.90;;;;;;6242968;22;20020;-83
2024/01/07 17:41:23;;;;;;;12.65;4.95;;;3.80;99.90;;;;;;6007621;23;20442;-82
2024/01/07 17:44:01;;;;;;;7.90;4.40;;;3.70;99.90;;;;;;5960935;23;19996;-80
2024/01/07 18:06:00;;;;;;;7.15;3.85;;;3.50;99.90;;;;;;6303548;22;20004;-82
2024/01/07 18:11:19;;;;;;;8.65;4.60;;;3.50;99.90;;;;;;6268789;22;20236;-82
2024/01/07 18:21:54;;;;;;;;;;;;;;;;;;;;;
2024/01/07 18:25:19;;;;;;;;;;;;;;;;;;;;;
2024/01/07 18:28:12;;;;;;;6.78;3.72;;;3.10;99.90;;;;;;5939328;23;20020;-82
2024/01/07 18:34:36;;;;;;;5.57;3.40;;;3.10;99.90;;;;;;6092402;23;20055;-83
2024/01/07 18:37:49;;;;;;;7.82;4.00;;;3.10;99.90;;;;;;6125856;23;20080;-83
2024/01/07 18:40:46;;;;;;;7.78;4.32;;;3.10;99.90;;;;;;6244146;23;19996;-83
2024/01/07 18:49:36;;;;;;;6.95;3.53;;;2.80;99.90;;;;;;6273300;22;20007;-80
2024/01/07 18:56:10;;;;;;;5.85;3.50;;;2.70;99.90;;;;;;6207212;22;20023;-82
2024/01/07 18:59:54;;;;;;;5.28;3.13;;;2.70;99.90;;;;;;6246149;23;20015;-81
2024/01/07 19:02:21;;;;;;;5.65;3.15;;;;;;;;;;6196116;22;20054;-82
2024/01/07 19:05:55;;;;;;;4.35;2.50;;;2.70;99.90;;;;;;6250863;22;20042;-81
2024/01/07 19:08:52;;;;;;;5.00;2.97;;;2.60;99.90;;;;;;6271600;22;20051;-80
2024/01/07 19:11:48;;;;;;;5.50;2.90;;;2.60;99.90;;;;;;6187878;23;20018;-82
2024/01/07 19:14:38;;;;;;;5.80;2.97;;;2.50;99.90;;;;;;6270686;23;20064;-79
2024/01/07 19:17:37;;;;;;;6.40;2.63;;;2.50;99.90;;;;;;6248181;23;20000;-82
2024/01/07 19:20:54;;;;;;;5.72;2.95;;;2.50;99.90;;;;;;6271962;23;20004;-81
2024/01/07 19:23:35;;;;;;;4.35;2.40;;;2.40;99.90;;;;;;6219752;23;20060;-80
2024/01/07 19:26:51;;;;;;;5.35;3.10;;;1.50;99.90;;;;;;6255991;23;20018;-81
2024/01/07 19:29:22;;;;;;;4.32;2.47;;;2.40;99.90;;;;;;6200669;23;19984;-81
2024/01/07 19:34:58;;;;;;;5.32;2.58;;;;;;;;;;6180053;23;20005;-84
2024/01/07 19:37:36;;;;;;;5.25;2.50;;;2.40;99.90;;;;;;6179244;23;20002;-82
2024/01/07 19:43:35;;;;;;;3.65;2.20;;;2.30;99.90;;;;;;6180415;23;20000;-81
2024/01/07 19:46:44;;;;;;;3.55;2.45;;;2.30;99.90;;;;;;6178182;23;20017;-82
2024/01/07 19:49:20;;;;;;;3.88;2.40;;;2.20;99.90;;;;;;6117908;23;20042;-82
2024/01/07 19:52:13;;;;;;;5.30;2.47;;;2.30;99.90;;;;;;6177904;23;20004;-81
2024/01/07 19:55:21;;;;;;;4.32;2.78;;;2.30;99.90;;;;;;6180236;23;20017;-81
2024/01/07 19:57:53;;;;;;;5.22;2.28;;;2.20;99.90;;;;;;6156392;23;20029;-81
2024/01/07 20:03:30;;;;;;;3.90;2.00;;;2.20;99.90;;;;;;6266552;22;20486;-82
2024/01/07 20:06:24;;;;;;;3.33;1.90;;;2.10;99.90;;;;;;6266268;23;20004;-81
2024/01/07 20:09:37;;;;;;;3.90;2.20;;;2.00;99.90;;;;;;6301318;22;20012;-82
2024/01/07 20:12:12;;;;;;;3.85;2.15;;;2.00;99.90;;;;;;6301518;22;19988;-82
2024/01/07 20:15:43;;;;;;;3.90;2.10;;;2.00;99.90;;;;;;6277815;22;20004;-82
2024/01/07 20:18:09;;;;;;;4.18;2.00;;;;;;;;;;6241788;23;20173;-82
2024/01/07 20:52:45;;;;;;;3.58;2.17;;;1.60;99.90;;;;;;6268879;22;20092;-81
2024/01/07 20:55:43;;;;;;;4.07;1.98;;;1.60;99.90;;;;;;6242166;22;20019;-83
2024/01/07 20:58:31;;;;;;;3.58;2.05;;;;;;;;;;6152922;23;20017;-81
2024/01/07 21:01:32;;;;;;;4.05;1.58;;;1.70;99.90;;;;;;6175664;23;20017;-82
2024/01/07 21:04:38;;;;;;;3.58;1.80;;;1.70;99.90;;;;;;6228165;22;19998;-82
2024/01/07 21:07:54;;;;;;;4.82;1.80;;;1.60;99.90;;;;;;6274376;22;19995;-83
2024/01/07 21:11:20;;;;;;;4.35;2.22;;;1.50;99.90;;;;;;6151192;23;20002;-82
2024/01/07 21:20:31;;;;;;;3.63;2.00;;;1.50;99.90;;;;;;6221361;23;20016;-82
2024/01/07 21:26:59;;;;;;;;;;;;;;;;;;;;;
2024/01/07 21:30:36;;;;;;;3.60;1.80;;;1.50;99.90;;;;;;6208277;23;20022;-81
2024/01/07 21:34:03;;;;;;;3.03;1.65;;;1.50;99.90;;;;;;6121122;23;19998;-81
2024/01/07 21:37:09;;;;;;;2.92;1.63;;;1.40;99.90;;;;;;6147709;23;20042;-83
2024/01/07 21:39:59;;;;;;;3.60;1.80;;;1.40;99.90;;;;;;6272539;23;20023;-83
2024/01/07 21:42:38;;;;;;;;;;;;;;;;;;;;;
2024/01/07 21:46:04;;;;;;;;;;;;;;;;;;;;;
2024/01/07 21:51:54;;;;;;;5.40;1.77;;;;;;;;;;6079320;23;19953;-81
2024/01/07 21:54:33;;;;;;;3.70;1.85;;;1.50;99.90;;;;;;6270428;23;19987;-81
2024/01/07 21:57:02;;;;;;;2.53;1.50;;;;;;;;;;6247272;23;20051;-83
2024/01/07 21:59:37;;;;;;;3.47;1.90;;;1.30;99.90;;;;;;6271263;22;20016;-80
2024/01/07 22:02:42;;;;;;;2.85;1.60;;;1.40;99.90;;;;;;6270745;23;20020;-81
2024/01/07 22:05:29;;;;;;;4.05;2.10;;;1.40;99.90;;;;;;6239167;23;20004;-82
2024/01/07 22:08:32;;;;;;;2.63;1.75;;;1.40;99.90;;;;;;6240569;23;20109;-82
2024/01/07 22:11:43;;;;;;;4.47;2.10;;;1.40;99.90;;;;;;6216306;23;20016;-82
2024/01/07 22:14:35;;;;;;;3.45;1.80;;;1.30;99.90;;;;;;6242514;23;20005;-81
2024/01/07 22:17:07;;;;;;;2.05;1.38;;;1.40;99.90;;;;;;6236970;23;20005;-82
2024/01/07 22:19:38;;;;;;;2.95;1.75;;;1.30;99.90;;;;;;6236822;23;20056;-82
2024/01/07 22:22:11;;;;;;;4.18;2.13;;;1.40;99.90;;;;;;6240594;23;20068;-81
2024/01/07 22:28:06;;;;;;;4.10;1.98;;;1.20;99.90;;;;;;6242329;23;20051;-82
2024/01/07 22:30:53;;;;;;;3.47;1.85;;;1.30;99.90;;;;;;6233765;23;20048;-80
2024/01/07 22:33:27;;;;;;;3.55;1.60;;;1.30;99.90;;;;;;6242237;23;20012;-82
2024/01/07 22:36:19;;;;;;;4.32;1.88;;;1.30;99.90;;;;;;6239623;23;19985;-82
2024/01/07 22:38:55;;;;;;;3.67;1.52;;;1.30;99.90;;;;;;6217552;23;20005;-82
2024/01/07 22:42:12;;;;;;;4.45;1.83;;;1.20;99.90;;;;;;6215541;23;20059;-82
2024/01/07 22:48:24;;;;;;;2.92;1.35;;;1.30;99.90;;;;;;6113619;23;20009;-81
2024/01/07 22:54:34;;;;;;;4.03;1.30;;;;;;;;;;6093561;23;20114;-80
2024/01/07 22:57:44;;;;;;;1.95;1.23;;;1.30;99.90;;;;;;6147596;23;20016;-83
2024/01/07 23:01:00;;;;;;;3.25;1.45;;;1.20;99.90;;;;;;6176824;23;20020;-83
2024/01/07 23:03:56;;;;;;;2.70;1.42;;;1.20;99.90;;;;;;6091899;23;20010;-82
2024/01/07 23:07:22;;;;;;;2.80;1.63;;;1.10;99.90;;;;;;6148671;23;20073;-82
2024/01/07 23:10:07;;;;;;;3.85;1.73;;;1.10;99.90;;;;;;6198201;23;19989;-81
2024/01/07 23:12:59;;;;;;;3.72;1.50;;;1.10;99.90;;;;;;6184495;23;20005;-81
2024/01/07 23:15:41;;;;;;;2.95;1.48;;;1.10;99.90;;;;;;6253092;22;20011;-80
2024/01/07 23:18:59;;;;;;;1.88;1.30;;;1.20;99.90;;;;;;6258823;23;19988;-81
2024/01/07 23:46:58;;;;;;;2.30;1.40;;;;;;;;;;6271006;22;20016;-82
2024/01/07 23:53:51;;;;;;;4.40;1.92;;;1.20;99.90;;;;;;5979645;24;20045;-84
